Time;durP1;ratioP1;P1;durP2;ratioP2;P2;SDS_P1;SDS_P2;PMS_P1;PMS_P2;Temp;Humidity;BMP_temperature;BMP_pressure;BME280_temperature;BME280_humidity;BME280_pressure;Samples;Min_cycle;Max_cycle;Signal;HPM_P1;HPM_P2
2022/05/23 00:02:16;;;;;;;10.45;4.28;;;18.80;99.90;;;;;;5053868;28;20029;-61
2022/05/23 00:04:42;;;;;;;7.57;3.63;;;18.70;99.90;;;;;;5053643;28;20017;-60
2022/05/23 00:07:15;;;;;;;5.45;3.40;;;18.80;99.90;;;;;;5053788;28;20503;-60
2022/05/23 00:09:41;;;;;;;5.05;3.63;;;18.80;99.90;;;;;;5054017;28;20389;-60
2022/05/23 00:12:07;;;;;;;9.65;3.97;;;18.90;99.90;;;;;;5052294;28;20025;-60
2022/05/23 00:14:33;;;;;;;5.97;3.50;;;18.90;99.90;;;;;;5053844;28;20053;-59
2022/05/23 00:16:59;;;;;;;7.28;3.00;;;19.00;99.90;;;;;;5053609;28;20048;-60
2022/05/23 00:19:25;;;;;;;9.48;3.25;;;19.10;99.90;;;;;;5053847;28;20404;-60
2022/05/23 00:21:51;;;;;;;5.50;3.63;;;19.10;99.90;;;;;;5053747;28;20032;-60
2022/05/23 00:24:20;;;;;;;9.18;4.07;;;19.10;99.90;;;;;;5053782;28;20112;-59
2022/05/23 00:26:49;;;;;;;6.65;4.57;;;19.10;99.90;;;;;;5053783;28;20025;-59
2022/05/23 00:29:15;;;;;;;9.13;4.70;;;19.10;99.90;;;;;;5053338;28;20265;-60
2022/05/23 00:35:17;;;;;;;9.65;5.45;;;19.00;99.90;;;;;;5053549;28;20120;-59
2022/05/23 00:37:12;;;;;;;8.18;4.68;;;19.00;99.90;;;;;;5053260;28;20036;-60
2022/05/23 00:39:37;;;;;;;8.55;5.38;;;18.90;99.90;;;;;;5053498;28;20048;-59
2022/05/23 00:44:54;;;;;;;9.18;5.50;;;19.30;99.90;;;;;;5053604;28;20463;-60
2022/05/23 00:47:23;;;;;;;10.25;5.45;;;19.10;99.90;;;;;;5051540;28;20025;-60
2022/05/23 00:49:49;;;;;;;10.90;5.47;;;19.00;99.90;;;;;;5053243;28;20032;-59
2022/05/23 00:52:32;;;;;;;14.20;5.70;;;19.00;99.90;;;;;;5052747;28;20488;-59
2022/05/23 00:55:01;;;;;;;8.25;5.18;;;19.00;99.90;;;;;;5052811;28;20497;-59
2022/05/23 00:57:32;;;;;;;6.72;4.70;;;18.90;99.90;;;;;;5052724;28;20074;-60
2022/05/23 00:59:59;;;;;;;9.48;4.68;;;18.90;99.90;;;;;;5052600;28;20040;-60
2022/05/23 01:02:24;;;;;;;9.93;4.90;;;18.80;99.90;;;;;;5052687;28;20029;-59
2022/05/23 01:04:51;;;;;;;9.82;5.85;;;18.70;99.90;;;;;;5052404;28;20036;-59
2022/05/23 01:07:17;;;;;;;8.32;5.22;;;18.80;99.90;;;;;;5051259;28;20040;-60
2022/05/23 01:09:43;;;;;;;6.82;5.20;;;18.70;99.90;;;;;;5053063;28;20025;-60
2022/05/23 01:12:08;;;;;;;7.53;5.22;;;18.80;99.90;;;;;;5051910;28;20021;-61
2022/05/23 01:14:44;;;;;;;7.75;5.30;;;19.00;99.90;;;;;;5067697;28;20032;-60
2022/05/23 01:17:10;;;;;;;7.88;5.28;;;19.20;99.90;;;;;;5052556;28;20032;-59
2022/05/23 01:19:36;;;;;;;8.45;4.97;;;19.10;99.90;;;;;;5052495;28;20021;-60
2022/05/23 01:22:12;;;;;;;9.07;5.00;;;19.00;99.90;;;;;;5052445;28;20033;-60
2022/05/23 01:25:15;;;;;;;8.70;5.03;;;18.90;99.90;;;;;;5052536;28;20100;-59
2022/05/23 01:27:41;;;;;;;10.57;5.57;;;18.80;99.90;;;;;;5045720;28;20696;-60
2022/05/23 01:30:08;;;;;;;9.88;5.80;;;18.60;99.90;;;;;;5052520;28;20037;-60
2022/05/23 01:32:33;;;;;;;10.93;5.50;;;18.80;99.90;;;;;;5052056;28;20040;-60
2022/05/23 01:34:59;;;;;;;9.52;5.53;;;18.80;99.90;;;;;;5052181;28;20017;-59
2022/05/23 01:37:25;;;;;;;8.07;5.57;;;18.70;99.90;;;;;;5052459;28;20106;-59
2022/05/23 01:39:50;;;;;;;7.90;5.38;;;18.60;99.90;;;;;;5052596;28;20021;-59
2022/05/23 01:42:16;;;;;;;8.40;5.72;;;18.70;99.90;;;;;;5052021;28;20021;-60
2022/05/23 01:44:42;;;;;;;11.30;5.55;;;18.90;99.90;;;;;;5052189;28;20028;-59
2022/05/23 01:47:17;;;;;;;10.20;6.07;;;18.90;99.90;;;;;;5052124;28;20028;-59
2022/05/23 01:49:43;;;;;;;10.73;6.00;;;18.90;99.90;;;;;;5051013;28;20029;-60
2022/05/23 01:52:10;;;;;;;10.93;5.68;;;18.80;99.90;;;;;;5052072;28;20487;-59
2022/05/23 01:54:37;;;;;;;8.88;5.97;;;18.80;99.90;;;;;;5051050;28;20029;-59
2022/05/23 01:57:04;;;;;;;8.68;5.90;;;18.70;99.90;;;;;;5051958;28;20021;-60
2022/05/23 02:02:14;;;;;;;8.00;5.63;;;18.80;99.90;;;;;;5051930;28;20542;-60
2022/05/23 02:04:40;;;;;;;7.63;5.50;;;18.60;99.90;;;;;;5052293;28;20024;-60
2022/05/23 02:07:06;;;;;;;7.80;5.45;;;18.60;99.90;;;;;;5050289;28;20025;-60
2022/05/23 02:09:32;;;;;;;9.23;5.30;;;18.50;99.90;;;;;;5051959;28;20064;-59
2022/05/23 02:11:58;;;;;;;10.60;5.18;;;18.40;99.90;;;;;;5053719;28;20044;-60
2022/05/23 02:14:24;;;;;;;7.88;5.20;;;18.30;99.90;;;;;;5056002;28;20029;-60
2022/05/23 02:16:50;;;;;;;9.43;5.88;;;18.40;99.90;;;;;;5056100;28;20039;-59
2022/05/23 02:19:16;;;;;;;10.98;6.28;;;18.50;99.90;;;;;;5054611;28;20032;-60
2022/05/23 02:21:41;;;;;;;9.55;5.80;;;18.60;99.90;;;;;;5055838;28;20025;-59
2022/05/23 02:24:07;;;;;;;9.82;5.93;;;18.70;99.90;;;;;;5055969;28;20025;-60
2022/05/23 02:26:33;;;;;;;13.02;6.00;;;18.80;99.90;;;;;;5054446;28;20029;-59
2022/05/23 02:29:00;;;;;;;9.93;6.10;;;18.70;99.90;;;;;;5055620;28;20035;-59
2022/05/23 02:31:26;;;;;;;8.98;6.15;;;18.40;99.90;;;;;;5055294;28;20045;-60
2022/05/23 02:33:52;;;;;;;11.35;6.22;;;18.30;99.90;;;;;;5055332;28;20025;-60
2022/05/23 02:36:17;;;;;;;11.23;6.38;;;18.20;99.90;;;;;;5054396;28;20370;-60
2022/05/23 02:38:43;;;;;;;12.45;6.28;;;18.10;99.90;;;;;;5054984;28;20033;-59
2022/05/23 02:41:09;;;;;;;11.35;6.53;;;17.90;99.90;;;;;;5055293;28;20163;-59
2022/05/23 02:43:34;;;;;;;9.70;6.40;;;17.80;99.90;;;;;;5054163;28;20120;-60
2022/05/23 02:46:00;;;;;;;9.88;6.97;;;17.90;99.90;;;;;;5053778;28;20409;-60
2022/05/23 02:48:25;;;;;;;9.18;6.20;;;17.90;99.90;;;;;;5055457;28;20119;-60
2022/05/23 02:50:51;;;;;;;14.77;6.18;;;17.70;99.90;;;;;;5055405;28;20035;-63
2022/05/23 02:53:17;;;;;;;11.00;7.10;;;17.70;99.90;;;;;;5053564;28;20055;-59
2022/05/23 02:55:43;;;;;;;11.20;7.03;;;17.80;99.90;;;;;;5054844;28;20017;-61
2022/05/23 02:58:08;;;;;;;11.10;6.78;;;17.80;99.90;;;;;;5054784;28;20099;-61
2022/05/23 03:00:35;;;;;;;11.57;6.53;;;17.70;99.90;;;;;;5055260;28;20033;-60
2022/05/23 03:03:01;;;;;;;14.10;6.68;;;17.70;99.90;;;;;;5055049;28;20023;-60
2022/05/23 03:05:28;;;;;;;14.27;6.85;;;17.70;99.90;;;;;;5054843;28;20106;-59
2022/05/23 03:07:53;;;;;;;11.05;6.47;;;17.90;99.90;;;;;;5055675;28;20021;-60
2022/05/23 03:10:19;;;;;;;9.63;6.53;;;17.80;99.90;;;;;;5055317;28;20479;-58
2022/05/23 03:12:45;;;;;;;11.82;6.53;;;17.70;99.90;;;;;;5054905;28;20029;-59
2022/05/23 03:15:11;;;;;;;10.50;6.82;;;17.60;99.90;;;;;;5055222;28;20497;-61
2022/05/23 03:17:38;;;;;;;10.77;7.57;;;17.50;99.90;;;;;;5054830;28;20103;-60
2022/05/23 03:20:05;;;;;;;11.88;7.25;;;17.50;99.90;;;;;;5070334;28;20053;-60
2022/05/23 03:27:59;;;;;;;14.50;7.90;;;17.30;99.90;;;;;;5054459;28;20183;-61
2022/05/23 03:30:25;;;;;;;11.77;7.20;;;17.50;99.90;;;;;;5054609;28;20107;-60
2022/05/23 03:32:51;;;;;;;9.15;7.15;;;17.50;99.90;;;;;;5054695;28;20036;-60
2022/05/23 03:35:17;;;;;;;10.05;7.13;;;17.40;99.90;;;;;;5054583;28;20830;-60
2022/05/23 03:37:42;;;;;;;13.00;7.68;;;17.40;99.90;;;;;;5054531;28;20380;-59
2022/05/23 03:40:09;;;;;;;11.32;7.45;;;17.40;99.90;;;;;;5053220;28;20622;-60
2022/05/23 03:42:35;;;;;;;11.65;7.43;;;17.10;99.90;;;;;;5054544;28;20031;-60
2022/05/23 03:45:00;;;;;;;11.73;8.13;;;17.00;99.90;;;;;;5054070;28;20108;-60
2022/05/23 03:47:26;;;;;;;12.95;7.78;;;16.70;99.90;;;;;;5052558;28;20156;-59
2022/05/23 03:49:52;;;;;;;10.57;7.55;;;16.80;99.90;;;;;;5054030;28;20025;-60
2022/05/23 03:52:20;;;;;;;11.60;7.30;;;16.80;99.90;;;;;;5053694;28;20025;-60
2022/05/23 03:54:46;;;;;;;10.73;7.22;;;16.80;99.90;;;;;;5053917;28;20020;-60
2022/05/23 03:57:12;;;;;;;13.93;7.75;;;16.70;99.90;;;;;;5052661;28;20112;-62
2022/05/23 03:59:37;;;;;;;13.23;8.10;;;16.70;99.90;;;;;;5054289;28;20072;-58
2022/05/23 04:02:04;;;;;;;15.75;8.07;;;16.70;99.90;;;;;;5052647;28;20025;-60
2022/05/23 04:04:31;;;;;;;11.35;7.93;;;16.70;99.90;;;;;;5053851;28;20170;-59
2022/05/23 04:07:01;;;;;;;11.18;7.55;;;16.80;99.90;;;;;;5053263;28;20090;-59
2022/05/23 04:09:29;;;;;;;10.73;7.75;;;16.80;99.90;;;;;;5052375;28;20390;-59
2022/05/23 04:11:56;;;;;;;14.98;8.23;;;17.10;99.90;;;;;;5053643;28;20606;-59
2022/05/23 04:14:22;;;;;;;13.25;6.78;;;17.00;99.90;;;;;;5053396;28;20470;-60
2022/05/23 04:16:49;;;;;;;11.88;7.25;;;17.10;99.90;;;;;;5053477;28;20017;-59
2022/05/23 04:19:15;;;;;;;12.10;7.40;;;17.00;99.90;;;;;;5053068;28;20484;-60
2022/05/23 04:21:42;;;;;;;15.35;7.43;;;17.20;99.90;;;;;;5053198;28;20024;-60
2022/05/23 04:24:08;;;;;;;12.82;6.90;;;17.30;99.90;;;;;;5053361;28;20029;-59
2022/05/23 04:26:34;;;;;;;12.90;7.50;;;17.30;99.90;;;;;;5053194;28;20029;-60
2022/05/23 04:29:00;;;;;;;10.88;7.13;;;17.40;99.90;;;;;;5053310;28;20040;-60
2022/05/23 04:31:25;;;;;;;9.40;6.93;;;17.40;99.90;;;;;;5051760;28;20044;-59
2022/05/23 04:36:35;;;;;;;18.33;7.20;;;17.60;99.90;;;;;;5053038;28;20043;-60
2022/05/23 04:39:01;;;;;;;13.48;7.20;;;17.70;99.90;;;;;;5051518;28;20021;-59
2022/05/23 04:41:26;;;;;;;16.20;8.15;;;17.80;99.90;;;;;;5053289;28;20068;-59
2022/05/23 04:43:52;;;;;;;14.13;7.43;;;18.10;99.90;;;;;;5052753;28;20020;-60
2022/05/23 04:46:17;;;;;;;11.43;7.07;;;18.20;99.90;;;;;;5053047;28;20025;-60
2022/05/23 04:51:27;;;;;;;15.10;7.03;;;18.00;99.90;;;;;;5052969;28;20090;-60
2022/05/23 04:53:53;;;;;;;11.82;8.00;;;18.00;99.90;;;;;;5052818;28;20485;-59
2022/05/23 04:56:23;;;;;;;13.45;7.53;;;18.20;99.90;;;;;;5052568;28;20029;-59
2022/05/23 04:58:49;;;;;;;10.70;8.02;;;18.40;99.90;;;;;;5053499;28;20049;-59
2022/05/23 05:01:15;;;;;;;13.95;7.68;;;18.30;99.90;;;;;;5072362;28;20055;-59
2022/05/23 05:03:40;;;;;;;16.50;8.38;;;18.70;99.90;;;;;;5072490;28;20097;-59
2022/05/23 05:06:06;;;;;;;15.55;8.18;;;18.80;99.90;;;;;;5072315;28;20473;-60
2022/05/23 05:08:32;;;;;;;12.52;7.38;;;18.60;99.90;;;;;;5071684;28;20032;-59
2022/05/23 05:10:58;;;;;;;14.57;7.70;;;18.60;99.90;;;;;;5072628;28;20503;-59
2022/05/23 05:13:24;;;;;;;14.50;8.45;;;18.40;99.90;;;;;;5072235;28;20495;-59
2022/05/23 05:15:50;;;;;;;12.07;8.02;;;18.50;99.90;;;;;;5070522;28;20060;-60
2022/05/23 05:18:16;;;;;;;20.23;8.60;;;18.60;99.90;;;;;;5071143;28;20429;-59
2022/05/23 05:20:41;;;;;;;15.95;8.20;;;18.50;99.90;;;;;;5071621;28;20024;-59
2022/05/23 05:23:07;;;;;;;13.23;8.13;;;18.50;99.90;;;;;;5072636;28;20103;-59
2022/05/23 05:25:33;;;;;;;20.73;8.40;;;18.50;99.90;;;;;;5067335;28;21340;-60
2022/05/23 05:27:58;;;;;;;18.75;8.55;;;18.40;99.90;;;;;;5064141;28;20032;-61
2022/05/23 05:30:24;;;;;;;16.05;8.52;;;18.40;99.90;;;;;;5066019;28;20097;-59
2022/05/23 05:32:58;;;;;;;13.40;8.57;;;18.40;99.90;;;;;;5058803;28;20082;-59
2022/05/23 05:35:30;;;;;;;14.30;8.00;;;18.60;99.90;;;;;;5068017;28;20036;-58
2022/05/23 05:38:16;;;;;;;13.83;7.83;;;18.70;99.90;;;;;;5068310;28;20051;-59
2022/05/23 05:40:44;;;;;;;13.70;8.05;;;18.80;99.90;;;;;;5069891;28;20036;-58
2022/05/23 05:43:32;;;;;;;14.77;8.57;;;18.70;99.90;;;;;;5069799;28;20029;-58
2022/05/23 05:46:02;;;;;;;11.55;7.90;;;18.60;99.90;;;;;;5069354;28;20024;-58
2022/05/23 05:48:29;;;;;;;19.83;8.70;;;18.50;99.90;;;;;;5069447;28;20109;-58
2022/05/23 05:50:55;;;;;;;12.38;8.63;;;18.20;99.90;;;;;;5069486;28;20109;-58
2022/05/23 05:53:26;;;;;;;13.10;8.02;;;18.10;99.90;;;;;;5068182;28;20488;-58
2022/05/23 05:55:52;;;;;;;13.73;8.73;;;18.00;99.90;;;;;;5069340;28;20105;-58
2022/05/23 05:58:18;;;;;;;13.32;8.13;;;17.90;99.90;;;;;;5068966;28;20040;-58
2022/05/23 06:00:44;;;;;;;12.95;8.05;;;17.90;99.90;;;;;;5082896;28;20150;-58
2022/05/23 06:03:10;;;;;;;14.85;8.90;;;17.70;99.90;;;;;;5063987;28;20119;-59
2022/05/23 06:11:23;;;;;;;16.33;9.00;;;17.80;99.90;;;;;;5057417;28;20059;-59
2022/05/23 06:13:49;;;;;;;13.60;9.30;;;17.70;99.90;;;;;;5054377;28;20124;-59
2022/05/23 06:16:16;;;;;;;14.48;9.18;;;17.80;99.90;;;;;;5056937;28;20477;-58
2022/05/23 06:18:42;;;;;;;14.77;9.80;;;17.90;99.90;;;;;;5052620;28;20415;-58
2022/05/23 06:21:09;;;;;;;14.30;10.38;;;17.90;99.90;;;;;;5055530;28;20059;-59
2022/05/23 06:23:39;;;;;;;17.42;9.82;;;17.70;99.90;;;;;;5053256;28;20060;-58
2022/05/23 06:26:04;;;;;;;16.98;10.45;;;17.60;99.90;;;;;;5049961;28;20078;-59
2022/05/23 06:28:30;;;;;;;14.73;10.43;;;17.60;99.90;;;;;;5051041;28;20040;-58
2022/05/23 06:30:57;;;;;;;21.70;10.80;;;17.80;99.90;;;;;;5047134;28;20463;-59
2022/05/23 06:33:23;;;;;;;14.23;10.15;;;17.90;99.90;;;;;;5051268;28;20036;-58
2022/05/23 06:35:50;;;;;;;17.25;10.27;;;18.00;99.90;;;;;;5052130;28;20028;-59
2022/05/23 06:38:16;;;;;;;16.55;10.52;;;18.20;99.90;;;;;;5044857;28;20029;-58
2022/05/23 06:40:42;;;;;;;14.40;10.95;;;18.50;99.90;;;;;;5051179;28;21649;-55
2022/05/23 06:43:08;;;;;;;18.90;10.88;;;18.80;99.90;;;;;;5051902;28;20686;-53
2022/05/23 06:45:34;;;;;;;20.08;10.95;;;18.90;99.90;;;;;;5059522;28;20029;-54
2022/05/23 06:47:59;;;;;;;13.75;10.05;;;19.10;99.90;;;;;;5051829;28;20036;-54
2022/05/23 06:50:25;;;;;;;13.85;9.70;;;19.30;99.90;;;;;;5053386;28;20965;-54
2022/05/23 06:52:50;;;;;;;16.33;10.48;;;19.10;99.90;;;;;;5052171;28;20503;-54
2022/05/23 06:55:16;;;;;;;19.17;10.68;;;19.10;99.90;;;;;;5053279;28;20075;-54
2022/05/23 06:57:42;;;;;;;20.25;10.35;;;19.30;99.90;;;;;;5051654;28;20032;-54
2022/05/23 07:00:09;;;;;;;16.98;9.80;;;19.60;99.90;;;;;;5057362;28;20028;-54
2022/05/23 07:02:38;;;;;;;22.05;9.27;;;19.80;99.90;;;;;;5054885;28;20074;-54
2022/05/23 07:13:17;;;;;;;14.25;8.95;;;20.80;99.90;;;;;;5059164;28;20443;-53
2022/05/23 07:15:51;;;;;;;13.38;8.65;;;20.90;99.90;;;;;;5057975;28;20025;-53
2022/05/23 07:18:19;;;;;;;16.35;8.95;;;20.50;99.90;;;;;;5055932;28;20024;-54
2022/05/23 07:20:45;;;;;;;21.52;9.63;;;20.10;99.90;;;;;;5061276;28;20478;-54
2022/05/23 07:23:11;;;;;;;15.10;9.50;;;20.20;99.90;;;;;;5055130;28;20078;-55
2022/05/23 07:25:38;;;;;;;15.60;9.23;;;20.60;99.90;;;;;;5055511;28;20138;-54
2022/05/23 07:28:04;;;;;;;17.58;8.98;;;20.80;99.90;;;;;;5053359;28;21050;-54
2022/05/23 07:30:30;;;;;;;11.68;8.43;;;20.50;99.90;;;;;;5055241;28;20102;-54
2022/05/23 07:32:57;;;;;;;14.27;9.27;;;20.40;99.90;;;;;;5057488;28;20654;-54
2022/05/23 07:35:24;;;;;;;12.18;9.02;;;20.50;99.90;;;;;;5054015;28;20028;-54
2022/05/23 07:37:50;;;;;;;13.57;9.15;;;20.50;99.90;;;;;;5054329;28;20036;-54
2022/05/23 07:40:16;;;;;;;13.23;8.75;;;21.20;99.90;;;;;;5052810;28;20033;-54
2022/05/23 07:42:43;;;;;;;16.58;8.38;;;21.40;99.90;;;;;;5055111;28;20029;-54
2022/05/23 07:45:09;;;;;;;9.20;7.60;;;21.90;99.90;;;;;;5064981;28;20024;-54
2022/05/23 07:47:35;;;;;;;12.35;7.63;;;22.50;99.90;;;;;;5056702;28;20025;-55
2022/05/23 07:50:01;;;;;;;8.63;7.40;;;22.80;99.90;;;;;;5055545;28;20031;-55
2022/05/23 07:52:27;;;;;;;12.63;7.78;;;23.30;99.90;;;;;;5059997;28;20522;-54
2022/05/23 08:00:33;;;;;;;10.20;6.75;;;23.60;99.90;;;;;;5059057;28;20102;-54
2022/05/23 08:03:02;;;;;;;10.30;6.78;;;22.70;99.90;;;;;;5061835;28;20107;-54
2022/05/23 08:05:27;;;;;;;15.02;7.18;;;22.40;99.90;;;;;;5057578;28;20037;-54
2022/05/23 08:07:53;;;;;;;12.05;7.70;;;22.80;99.90;;;;;;5053250;28;20098;-54
2022/05/23 08:10:19;;;;;;;11.35;6.90;;;23.10;99.90;;;;;;5055479;28;20431;-54
2022/05/23 08:12:49;;;;;;;12.38;5.90;;;23.60;99.90;;;;;;5056614;28;20028;-54
2022/05/23 08:15:15;;;;;;;9.38;5.60;;;24.50;99.90;;;;;;5063553;28;20624;-54
2022/05/23 08:17:40;;;;;;;7.97;5.35;;;24.90;99.90;;;;;;5062259;28;20048;-54
2022/05/23 08:20:06;;;;;;;8.43;5.05;;;25.50;99.70;;;;;;5058537;28;20028;-54
2022/05/23 08:22:32;;;;;;;8.02;5.47;;;25.50;99.40;;;;;;5057534;28;20413;-54
2022/05/23 08:24:58;;;;;;;9.30;5.30;;;25.30;99.50;;;;;;5065699;28;20035;-54
2022/05/23 08:27:24;;;;;;;11.70;5.95;;;25.20;99.80;;;;;;5063710;28;20025;-54
2022/05/23 08:29:50;;;;;;;8.68;4.93;;;25.90;98.60;;;;;;5059940;28;20032;-54
2022/05/23 08:32:16;;;;;;;7.20;5.63;;;26.30;97.90;;;;;;5054974;28;20405;-52
2022/05/23 08:34:42;;;;;;;8.02;5.20;;;26.20;97.60;;;;;;5052537;28;20036;-52
2022/05/23 08:37:08;;;;;;;10.00;5.20;;;26.50;97.20;;;;;;5063105;28;20021;-52
2022/05/23 08:39:35;;;;;;;8.68;5.13;;;26.90;96.40;;;;;;5056418;28;20085;-52
2022/05/23 08:42:12;;;;;;;7.47;5.10;;;28.20;95.10;;;;;;5054483;28;20025;-53
2022/05/23 08:44:47;;;;;;;8.50;5.22;;;28.60;93.10;;;;;;5058040;28;20119;-53
2022/05/23 08:47:33;;;;;;;6.10;4.82;;;28.40;93.30;;;;;;5060467;28;20044;-53
2022/05/23 08:50:30;;;;;;;6.32;5.07;;;29.60;91.20;;;;;;5056500;28;20096;-54
2022/05/23 08:53:03;;;;;;;8.15;4.97;;;30.30;88.10;;;;;;5035332;28;20045;-54
2022/05/23 08:55:34;;;;;;;5.80;4.28;;;28.80;89.50;;;;;;5058081;28;20103;-54
2022/05/23 08:58:07;;;;;;;5.38;4.15;;;27.50;90.30;;;;;;5052677;28;20613;-54
2022/05/23 09:00:43;;;;;;;6.07;4.57;;;25.80;92.60;;;;;;5054987;28;20115;-53
2022/05/23 09:03:42;;;;;;;6.57;4.53;;;25.20;94.10;;;;;;5052028;28;20025;-53
2022/05/23 09:06:22;;;;;;;7.55;4.50;;;25.30;94.60;;;;;;5055096;28;20028;-53
2022/05/23 09:08:52;;;;;;;6.13;3.88;;;25.30;94.30;;;;;;5054658;28;20082;-53
2022/05/23 09:11:32;;;;;;;6.55;4.40;;;25.10;94.00;;;;;;5052020;28;20038;-53
2022/05/23 09:13:59;;;;;;;6.55;4.53;;;24.60;94.80;;;;;;5054678;28;20032;-53
2022/05/23 09:16:28;;;;;;;11.10;5.60;;;24.00;95.80;;;;;;5052321;28;20040;-54
2022/05/23 09:19:03;;;;;;;9.60;5.30;;;23.60;96.90;;;;;;5055824;28;20021;-54
2022/05/23 09:24:16;;;;;;;7.90;4.80;;;23.20;98.70;;;;;;5056679;28;20056;-53
2022/05/23 09:26:44;;;;;;;9.18;4.55;;;23.10;98.00;;;;;;5061629;28;20028;-53
2022/05/23 09:29:09;;;;;;;5.47;4.40;;;23.10;98.60;;;;;;5057555;28;20033;-53
2022/05/23 09:31:54;;;;;;;9.35;4.65;;;23.20;99.00;;;;;;5056159;28;20047;-53
2022/05/23 09:34:28;;;;;;;6.68;4.10;;;23.70;98.30;;;;;;5059889;28;20040;-53
2022/05/23 09:36:53;;;;;;;8.35;3.97;;;23.90;97.80;;;;;;5057908;28;20523;-54
2022/05/23 09:39:25;;;;;;;7.28;4.55;;;23.90;97.80;;;;;;5059000;28;20060;-54
2022/05/23 09:47:54;;;;;;;6.57;4.43;;;23.70;98.40;;;;;;5057358;28;20724;-54
2022/05/23 09:50:26;;;;;;;8.63;4.70;;;23.40;99.20;;;;;;5055362;28;20374;-54
2022/05/23 09:52:55;;;;;;;6.60;4.53;;;23.10;99.40;;;;;;5055177;28;20044;-54
2022/05/23 09:55:30;;;;;;;7.75;4.40;;;23.00;99.90;;;;;;5052437;28;20067;-54
2022/05/23 09:58:00;;;;;;;9.70;4.90;;;23.00;99.90;;;;;;5055511;28;20498;-54
2022/05/23 10:00:36;;;;;;;8.18;4.78;;;22.70;99.90;;;;;;5053560;28;20477;-55
2022/05/23 10:03:26;;;;;;;6.50;4.40;;;22.50;99.90;;;;;;5056271;28;20031;-53
2022/05/23 10:06:11;;;;;;;8.07;4.70;;;22.20;99.90;;;;;;5055997;28;20086;-53
2022/05/23 10:08:43;;;;;;;8.60;4.60;;;21.90;99.90;;;;;;5055811;28;20033;-53
2022/05/23 10:11:25;;;;;;;7.75;5.00;;;21.60;99.90;;;;;;5055702;28;20040;-53
2022/05/23 10:13:56;;;;;;;6.13;4.68;;;21.50;99.90;;;;;;5058884;28;20044;-54
2022/05/23 10:16:31;;;;;;;7.88;4.50;;;21.70;99.90;;;;;;5060118;28;20028;-53
2022/05/23 10:19:06;;;;;;;7.47;4.90;;;21.80;99.90;;;;;;5057500;28;20024;-53
2022/05/23 10:21:38;;;;;;;10.00;4.68;;;22.00;99.90;;;;;;5053771;28;20033;-53
2022/05/23 10:24:06;;;;;;;11.70;5.32;;;22.30;99.90;;;;;;5055549;28;20037;-52
2022/05/23 10:26:45;;;;;;;10.85;4.88;;;22.60;99.90;;;;;;5052148;28;20029;-52
2022/05/23 10:29:36;;;;;;;10.00;5.20;;;22.90;99.90;;;;;;5056107;28;20036;-53
2022/05/23 10:32:07;;;;;;;7.78;4.90;;;23.50;99.90;;;;;;5045880;28;20110;-52
2022/05/23 10:34:54;;;;;;;8.73;4.53;;;23.70;99.90;;;;;;5063385;28;20031;-52
2022/05/23 10:37:26;;;;;;;8.07;4.38;;;23.70;99.90;;;;;;5064393;28;20029;-52
2022/05/23 10:42:48;;;;;;;8.35;4.57;;;23.70;99.90;;;;;;5052231;28;20043;-52
2022/05/23 10:45:32;;;;;;;7.82;3.75;;;24.40;99.90;;;;;;5060036;28;20468;-52
2022/05/23 10:48:22;;;;;;;6.25;4.07;;;24.90;98.90;;;;;;5055516;28;20278;-52
2022/05/23 10:51:02;;;;;;;8.52;3.25;;;25.20;97.30;;;;;;5055610;28;20059;-52
2022/05/23 10:53:46;;;;;;;5.78;3.10;;;25.30;95.90;;;;;;5057952;28;20345;-53
2022/05/23 10:56:29;;;;;;;9.07;4.10;;;24.90;95.70;;;;;;5056839;28;20063;-53
2022/05/23 10:59:06;;;;;;;8.55;3.40;;;24.40;97.10;;;;;;5054974;28;20461;-53
2022/05/23 11:02:13;;;;;;;5.15;3.35;;;23.90;98.20;;;;;;5055109;28;20017;-52
2022/05/23 11:05:03;;;;;;;9.23;4.10;;;23.90;98.40;;;;;;5059984;28;20786;-53
2022/05/23 11:07:34;;;;;;;5.75;3.80;;;24.10;98.10;;;;;;5051853;28;20539;-53
2022/05/23 11:10:11;;;;;;;5.63;3.47;;;24.00;98.10;;;;;;5050383;28;20040;-53
2022/05/23 11:13:00;;;;;;;6.80;3.30;;;23.50;99.90;;;;;;5053059;28;20524;-53
2022/05/23 11:16:03;;;;;;;8.60;4.20;;;22.60;99.90;;;;;;5053531;28;20032;-51
2022/05/23 11:19:02;;;;;;;15.15;7.07;;;21.10;99.90;;;;;;5047095;28;20660;-62
2022/05/23 11:21:43;;;;;;;23.42;7.75;;;19.80;99.90;;;;;;5056719;28;20168;-61
2022/05/23 11:24:19;;;;;;;21.52;8.55;;;19.20;99.90;;;;;;5053827;28;20028;-61
2022/05/23 11:35:30;;;;;;;12.93;8.15;;;18.50;99.90;;;;;;5061745;28;20074;-62
2022/05/23 11:38:00;;;;;;;15.75;10.10;;;18.10;99.90;;;;;;5060374;28;20056;-65
2022/05/23 11:40:25;;;;;;;34.78;16.67;;;17.80;99.90;;;;;;5057368;28;20074;-66
2022/05/23 11:43:01;;;;;;;22.23;14.52;;;17.70;99.90;;;;;;5063355;28;20048;-64
2022/05/23 11:48:34;;;;;;;23.50;12.02;;;17.80;99.90;;;;;;5061371;28;20044;-61
2022/05/23 11:51:24;;;;;;;20.70;12.98;;;17.90;99.90;;;;;;5077123;28;20065;-63
2022/05/23 11:53:54;;;;;;;16.60;11.48;;;17.90;99.90;;;;;;5063757;28;20027;-61
2022/05/23 11:57:00;;;;;;;15.55;11.80;;;18.00;99.90;;;;;;5058228;28;20028;-60
2022/05/23 11:59:26;;;;;;;25.23;13.98;;;18.10;99.90;;;;;;5048652;28;20157;-63
2022/05/23 12:02:07;;;;;;;24.23;13.27;;;18.30;99.90;;;;;;5058727;28;20025;-64
2022/05/23 12:04:52;;;;;;;22.73;12.15;;;18.50;99.90;;;;;;5054683;28;20028;-64
2022/05/23 12:07:37;;;;;;;16.67;11.40;;;18.60;99.90;;;;;;5061921;28;20024;-61
2022/05/23 12:10:16;;;;;;;27.60;14.88;;;18.50;99.90;;;;;;5061780;28;20025;-61
2022/05/23 12:12:48;;;;;;;24.90;14.70;;;18.50;99.90;;;;;;5076852;28;20020;-62
2022/05/23 12:15:41;;;;;;;21.13;13.10;;;18.50;99.90;;;;;;5059155;28;20439;-61
2022/05/23 12:18:08;;;;;;;20.90;14.73;;;18.40;99.90;;;;;;5054340;28;20118;-59
2022/05/23 12:20:45;;;;;;;26.20;15.40;;;18.40;99.90;;;;;;5055636;28;20670;-58
2022/05/23 12:23:17;;;;;;;22.85;15.68;;;18.40;99.90;;;;;;5057259;28;20032;-57
2022/05/23 12:26:09;;;;;;;19.15;14.65;;;18.50;99.90;;;;;;5054329;28;21513;-57
2022/05/23 12:28:48;;;;;;;23.23;15.90;;;18.50;99.90;;;;;;5056458;28;20359;-58
2022/05/23 12:31:28;;;;;;;23.42;16.45;;;18.60;99.90;;;;;;5074244;28;20060;-58
2022/05/23 12:34:01;;;;;;;22.27;16.73;;;18.80;99.90;;;;;;5057920;28;20037;-58
2022/05/23 12:36:29;;;;;;;24.27;16.27;;;18.70;99.90;;;;;;5058563;28;20100;-58
2022/05/23 12:39:01;;;;;;;22.98;15.73;;;18.70;99.90;;;;;;5060025;28;20072;-58
2022/05/23 12:41:48;;;;;;;23.42;17.40;;;18.60;99.90;;;;;;5061859;28;20024;-60
2022/05/23 12:44:32;;;;;;;27.98;17.95;;;18.50;99.90;;;;;;5054552;28;20063;-62
2022/05/23 12:47:35;;;;;;;24.17;18.10;;;18.50;99.90;;;;;;5059883;28;20040;-64
2022/05/23 12:50:06;;;;;;;29.50;20.20;;;18.40;99.90;;;;;;5056754;28;20366;-63
2022/05/23 12:52:57;;;;;;;25.27;18.60;;;18.40;99.90;;;;;;5054885;28;20068;-62
2022/05/23 12:55:32;;;;;;;28.00;19.20;;;18.30;99.90;;;;;;5057550;28;20020;-61
2022/05/23 12:58:04;;;;;;;24.80;17.80;;;18.40;99.90;;;;;;5069433;28;20386;-61
2022/05/23 13:00:42;;;;;;;;;;;18.40;99.90;;;;;;5057184;28;20035;-61
2022/05/23 13:03:26;;;;;;;29.05;18.60;;;18.30;99.90;;;;;;5055310;28;19916;-59
2022/05/23 13:06:17;;;;;;;27.25;18.40;;;18.30;99.90;;;;;;5059202;28;20139;-59
2022/05/23 13:08:58;;;;;;;30.05;19.25;;;18.30;99.90;;;;;;5053865;28;20025;-58
2022/05/23 13:11:33;;;;;;;28.63;18.05;;;18.30;99.90;;;;;;5052690;28;20036;-58
2022/05/23 13:14:00;;;;;;;24.70;19.17;;;18.10;99.90;;;;;;5053991;28;20051;-56
2022/05/23 13:16:27;;;;;;;28.85;20.00;;;18.10;99.90;;;;;;5064594;28;20460;-55
2022/05/23 13:27:14;;;;;;;39.45;31.00;;;18.00;99.90;;;;;;5056364;28;20035;-57
2022/05/23 13:29:40;;;;;;;45.72;34.97;;;18.10;99.90;;;;;;5056271;28;20032;-57
2022/05/23 13:32:16;;;;;;;50.20;39.75;;;18.10;99.90;;;;;;5052464;28;20576;-58
2022/05/23 13:34:45;;;;;;;52.88;42.85;;;18.00;99.90;;;;;;5059096;28;20008;-57
2022/05/23 13:37:22;;;;;;;54.63;44.30;;;18.10;99.90;;;;;;5048264;28;20501;-64
2022/05/23 13:39:48;;;;;;;62.97;52.28;;;18.00;99.90;;;;;;5053713;28;20157;-63
2022/05/23 13:42:26;;;;;;;74.47;60.03;;;18.00;99.90;;;;;;5060061;28;20030;-64
2022/05/23 13:45:24;;;;;;;73.30;65.25;;;17.90;99.90;;;;;;5048514;28;20072;-62
2022/05/23 13:47:59;;;;;;;75.78;67.38;;;17.90;99.90;;;;;;5059379;28;20079;-62
2022/05/23 13:50:38;;;;;;;79.93;68.13;;;17.90;99.90;;;;;;5053846;28;20024;-59
2022/05/23 13:53:38;;;;;;;85.03;70.50;;;17.90;99.90;;;;;;5062023;28;20615;-58
2022/05/23 13:56:05;;;;;;;85.03;72.35;;;17.90;99.90;;;;;;5059281;28;20035;-60
2022/05/23 13:58:34;;;;;;;90.00;75.45;;;17.90;99.90;;;;;;5061617;28;20024;-60
2022/05/23 14:01:14;;;;;;;87.82;77.70;;;17.90;99.90;;;;;;5061898;28;20497;-58
2022/05/23 14:03:43;;;;;;;87.40;76.70;;;17.90;99.90;;;;;;5051029;28;20116;-57
2022/05/23 14:06:16;;;;;;;88.55;78.55;;;17.90;99.90;;;;;;5068027;28;20024;-57
2022/05/23 14:08:52;;;;;;;87.95;78.07;;;17.80;99.90;;;;;;5066811;28;20545;-56